createdAt,value
2019-02-25T00:03:53.875Z,27.13
2019-02-25T00:08:00.421Z,30.93
2019-02-25T00:12:06.953Z,27.17
2019-02-25T00:16:17.552Z,28.50
2019-02-25T00:20:23.847Z,27.67
2019-02-25T00:24:33.239Z,29.70
2019-02-25T00:28:39.734Z,28.00
2019-02-25T00:32:47.037Z,26.63
2019-02-25T00:37:13.833Z,27.73
2019-02-25T00:41:20.698Z,27.43
2019-02-25T00:45:27.202Z,27.63
2019-02-25T00:49:36.972Z,28.57
2019-02-25T00:53:43.654Z,28.17
2019-02-25T00:57:52.189Z,30.03
2019-02-25T01:01:58.110Z,30.00
2019-02-25T01:06:08.733Z,27.43
2019-02-25T01:10:39.458Z,27.60
2019-02-25T01:14:46.119Z,32.53
2019-02-25T01:18:55.851Z,29.80
2019-02-25T01:23:03.373Z,22.10
2019-02-25T01:27:09.989Z,25.87
2019-02-25T01:31:18.010Z,27.90
2019-02-25T01:35:24.310Z,27.17
2019-02-25T01:39:34.786Z,28.30
2019-02-25T01:43:42.975Z,26.90
2019-02-25T01:47:49.901Z,27.23
2019-02-25T01:51:58.572Z,25.33
2019-02-25T01:56:06.820Z,23.60
2019-02-25T02:00:14.301Z,28.50
2019-02-25T02:04:22.056Z,26.93
2019-02-25T02:08:33.280Z,24.57
2019-02-25T02:12:39.757Z,26.23
2019-02-25T02:16:48.396Z,26.07
2019-02-25T02:20:56.251Z,24.07
2019-02-25T02:25:03.183Z,23.43
2019-02-25T02:33:17.787Z,25.37
2019-02-25T02:37:24.276Z,26.00
2019-02-25T02:41:33.875Z,23.10
2019-02-25T02:45:56.393Z,24.17
2019-02-25T02:50:03.495Z,20.90
2019-02-25T02:54:11.953Z,24.13
2019-02-25T02:58:18.170Z,23.30
2019-02-25T03:02:26.004Z,23.83
2019-02-25T03:06:34.089Z,23.77
2019-02-25T03:10:40.870Z,22.80
2019-02-25T03:14:50.455Z,23.07
2019-02-25T03:18:57.434Z,24.30
2019-02-25T03:23:03.720Z,22.33
2019-02-25T03:27:33.313Z,23.60
2019-02-25T03:31:40.017Z,25.40
2019-02-25T03:35:50.438Z,19.47
2019-02-25T03:39:59.854Z,26.10
2019-02-25T03:44:10.240Z,26.20
2019-02-25T03:48:17.415Z,23.87
2019-02-25T03:52:24.795Z,25.63
2019-02-25T03:56:34.203Z,22.23
2019-02-25T04:00:40.773Z,23.27
2019-02-25T04:04:49.366Z,24.00
2019-02-25T04:08:57.351Z,25.07
2019-02-25T04:17:13.859Z,22.33
2019-02-25T04:21:20.243Z,23.73
2019-02-25T04:25:30.172Z,25.30
2019-02-25T04:29:36.527Z,23.27
2019-02-25T04:33:48.744Z,22.63
2019-02-25T04:37:56.310Z,21.70
2019-02-25T04:42:07.021Z,22.67
2019-02-25T04:46:13.321Z,21.27
2019-02-25T04:50:20.209Z,22.43
2019-02-25T04:54:30.478Z,23.47
2019-02-25T04:58:37.637Z,22.43
2019-02-25T05:02:45.184Z,21.50
2019-02-25T05:06:58.993Z,24.40
2019-02-25T05:11:05.359Z,23.33
2019-02-25T05:15:17.364Z,23.00
2019-02-25T05:19:23.671Z,21.30
2019-02-25T05:23:31.518Z,23.70
2019-02-25T05:27:43.215Z,23.37
2019-02-25T05:31:52.004Z,23.47
2019-02-25T05:35:58.291Z,22.60
2019-02-25T05:40:08.646Z,23.83
2019-02-25T05:44:15.054Z,23.90
2019-02-25T05:48:22.880Z,23.17
2019-02-25T05:53:28.128Z,20.60
2019-02-25T05:57:37.667Z,24.43
2019-02-25T06:05:49.492Z,25.03
2019-02-25T06:09:58.881Z,25.40
2019-02-25T06:14:09.053Z,26.07
2019-02-25T06:18:20.946Z,26.17
2019-02-25T06:26:38.690Z,20.67
2019-02-25T06:35:13.573Z,25.23
2019-02-25T06:39:21.615Z,23.57
2019-02-25T06:43:30.900Z,18.23
2019-02-25T06:47:37.240Z,19.23
2019-02-25T06:51:44.592Z,23.40
2019-02-25T06:55:51.110Z,20.50
2019-02-25T06:59:57.969Z,22.70
2019-02-25T07:04:23.194Z,24.90
2019-02-25T07:08:52.636Z,12.90
2019-02-25T07:13:08.250Z,23.33
2019-02-25T07:17:29.725Z,24.13
2019-02-25T07:21:48.221Z,22.40
2019-02-25T07:26:08.442Z,25.40
2019-02-25T07:30:37.238Z,23.67
2019-02-25T07:35:10.647Z,23.93
2019-02-25T07:39:29.523Z,15.53
2019-02-25T07:43:49.541Z,17.50
2019-02-25T07:48:14.782Z,22.23
2019-02-25T07:52:28.628Z,22.97
2019-02-25T07:56:44.614Z,24.00
2019-02-25T08:00:59.380Z,22.63
2019-02-25T08:05:09.497Z,21.23
2019-02-25T08:09:30.593Z,23.20
2019-02-25T08:13:48.258Z,19.47
2019-02-25T08:18:09.839Z,23.40
2019-02-25T08:22:35.972Z,24.10
2019-02-25T08:27:02.681Z,23.20
2019-02-25T08:31:29.464Z,23.30
2019-02-25T08:36:07.716Z,22.33
2019-02-25T08:40:29.330Z,19.83
2019-02-25T08:44:49.042Z,24.60
2019-02-25T08:49:34.777Z,24.63
2019-02-25T08:53:41.563Z,25.37
2019-02-25T08:57:47.924Z,24.10
2019-02-25T09:01:53.709Z,23.73
2019-02-25T09:05:59.973Z,19.87
2019-02-25T09:10:06.997Z,26.33
2019-02-25T09:14:35.652Z,25.30
2019-02-25T09:18:45.823Z,24.93
2019-02-25T09:22:55.804Z,21.30
2019-02-25T09:27:02.329Z,19.50
2019-02-25T09:31:08.984Z,20.87
2019-02-25T09:35:37.129Z,25.23
2019-02-25T09:39:43.503Z,20.53
2019-02-25T09:43:55.399Z,25.17
2019-02-25T09:48:02.089Z,24.70
2019-02-25T09:52:09.169Z,25.17
2019-02-25T09:56:34.929Z,27.10
2019-02-25T10:00:41.711Z,27.50
2019-02-25T10:04:48.142Z,26.10
2019-02-25T10:08:58.387Z,26.67
2019-02-25T10:13:05.217Z,22.30
2019-02-25T10:17:13.271Z,24.87
2019-02-25T10:21:19.894Z,24.10
2019-02-25T10:25:28.634Z,21.33
2019-02-25T10:29:38.700Z,30.03
2019-02-25T10:33:45.330Z,29.27
2019-02-25T10:37:53.363Z,28.20
2019-02-25T10:42:01.725Z,28.73
2019-02-25T10:46:09.525Z,26.80
2019-02-25T10:50:19.705Z,29.90
2019-02-25T10:54:26.130Z,26.87
2019-02-25T10:58:54.366Z,31.13
2019-02-25T11:03:01.279Z,29.97
2019-02-25T11:07:09.594Z,28.67
2019-02-25T11:11:24.442Z,30.27
2019-02-25T11:15:37.526Z,32.00
2019-02-25T11:19:44.886Z,29.77
2019-02-25T11:28:04.398Z,31.60
2019-02-25T11:36:20.037Z,34.23
2019-02-25T11:40:28.395Z,35.47
2019-02-25T11:45:15.724Z,35.43
2019-02-25T11:49:23.479Z,33.80
2019-02-25T11:53:29.802Z,35.13
2019-02-25T11:57:39.120Z,36.70
2019-02-25T12:01:47.907Z,38.87
2019-02-25T12:06:13.799Z,35.80
2019-02-25T12:10:20.447Z,36.87
2019-02-25T12:14:27.385Z,32.33
2019-02-25T12:18:34.033Z,30.57
2019-02-25T12:22:45.766Z,30.20
2019-02-25T12:26:54.104Z,32.67
2019-02-25T12:31:03.187Z,35.07
2019-02-25T12:35:10.105Z,28.93
2019-02-25T12:39:16.487Z,25.30
2019-02-25T12:43:22.870Z,34.80
2019-02-25T12:47:29.586Z,34.10
2019-02-25T12:51:38.865Z,33.87
2019-02-25T12:55:46.509Z,34.27
2019-02-25T12:59:54.106Z,32.50
2019-02-25T13:04:00.444Z,32.33
2019-02-25T13:08:06.906Z,31.10
2019-02-25T13:12:15.260Z,30.13
2019-02-25T13:16:22.273Z,34.00
2019-02-25T13:20:34.173Z,33.40
2019-02-25T13:24:40.751Z,32.90
2019-02-25T13:28:48.940Z,30.60
2019-02-25T13:33:19.048Z,32.57
2019-02-25T13:37:25.820Z,33.90
2019-02-25T13:41:36.969Z,33.87
2019-02-25T13:45:44.732Z,31.53
2019-02-25T13:49:55.480Z,34.03
2019-02-25T13:54:02.019Z,30.33
2019-02-25T13:58:08.354Z,27.87
2019-02-25T14:02:17.254Z,26.63
2019-02-25T14:06:23.587Z,32.43
2019-02-25T14:14:40.191Z,31.70
2019-02-25T14:18:47.752Z,28.70
2019-02-25T14:22:54.163Z,33.77
2019-02-25T14:27:00.778Z,37.73
2019-02-25T14:31:12.553Z,35.37
2019-02-25T14:35:28.209Z,35.10
2019-02-25T14:39:36.018Z,33.77
2019-02-25T14:43:48.731Z,34.57
2019-02-25T14:47:59.654Z,33.83
2019-02-25T14:52:04.593Z,36.27
2019-02-25T14:56:14.246Z,39.23
2019-02-25T15:00:24.285Z,37.80
2019-02-25T15:04:35.804Z,37.67
2019-02-25T15:08:43.398Z,35.67
2019-02-25T15:12:53.785Z,37.70
2019-02-25T15:16:59.137Z,41.30
2019-02-25T15:21:08.531Z,36.67
2019-02-25T15:25:17.853Z,30.17
2019-02-25T15:29:24.301Z,37.57
2019-02-25T15:33:33.623Z,40.73
2019-02-25T15:37:40.596Z,41.87
2019-02-25T15:41:49.286Z,45.70
2019-02-25T15:45:58.648Z,44.40
2019-02-25T15:50:05.932Z,43.67
2019-02-25T15:54:16.525Z,30.13
2019-02-25T15:58:23.020Z,40.27
2019-02-25T16:02:29.489Z,46.40
2019-02-25T16:06:57.613Z,41.10
2019-02-25T16:11:06.199Z,44.90
2019-02-25T16:15:15.775Z,44.60
2019-02-25T16:19:23.836Z,42.60
2019-02-25T16:23:32.045Z,42.73
2019-02-25T16:27:38.368Z,43.43
2019-02-25T16:31:45.904Z,39.60
2019-02-25T16:35:53.584Z,46.13
2019-02-25T16:40:03.851Z,47.23
2019-02-25T16:44:16.658Z,42.00
2019-02-25T16:48:28.084Z,37.13
2019-02-25T16:52:36.080Z,39.50
2019-02-25T16:56:42.343Z,37.57
2019-02-25T17:00:48.748Z,36.83
2019-02-25T17:05:16.713Z,33.90
2019-02-25T17:09:24.413Z,28.87
2019-02-25T17:17:40.192Z,39.10
2019-02-25T17:21:50.488Z,27.63
2019-02-25T17:25:58.751Z,42.37
2019-02-25T17:30:07.513Z,35.07
2019-02-25T17:34:16.488Z,27.83
2019-02-25T17:38:24.610Z,32.47
2019-02-25T17:42:34.450Z,41.30
2019-02-25T17:46:41.783Z,37.77
2019-02-25T17:50:49.257Z,47.07
2019-02-25T17:55:20.065Z,46.77
2019-02-25T17:59:27.314Z,51.83
2019-02-25T18:03:37.227Z,62.60
2019-02-25T18:07:46.504Z,45.90
2019-02-25T18:11:55.368Z,53.13
2019-02-25T18:16:01.716Z,54.07
2019-02-25T18:20:09.152Z,50.77
2019-02-25T18:24:36.276Z,50.00
2019-02-25T18:28:43.582Z,39.73
2019-02-25T18:37:00.605Z,41.90
2019-02-25T18:41:09.243Z,56.13
2019-02-25T18:45:41.025Z,46.63
2019-02-25T18:49:47.158Z,45.03
2019-02-25T18:53:57.048Z,49.20
2019-02-25T18:58:05.067Z,48.50
2019-02-25T19:02:17.246Z,50.97
2019-02-25T19:06:26.426Z,54.97
2019-02-25T19:11:15.104Z,48.93
2019-02-25T19:15:21.268Z,50.13
2019-02-25T19:19:28.139Z,51.23
2019-02-25T19:23:36.939Z,55.27
2019-02-25T19:27:44.989Z,46.03
2019-02-25T19:31:53.806Z,41.37
2019-02-25T19:36:02.827Z,40.90
2019-02-25T19:40:13.960Z,45.97
2019-02-25T19:44:21.087Z,41.57
2019-02-25T19:48:31.293Z,41.90
2019-02-25T19:52:44.262Z,45.53
2019-02-25T19:56:56.199Z,46.73
2019-02-25T20:01:06.633Z,45.50
2019-02-25T20:05:21.191Z,48.07
2019-02-25T20:09:29.098Z,43.73
2019-02-25T20:13:35.501Z,54.27
2019-02-25T20:18:24.160Z,48.37
2019-02-25T20:22:34.918Z,53.43
2019-02-25T20:26:44.118Z,49.63
2019-02-25T20:30:51.623Z,48.93
2019-02-25T20:34:59.365Z,50.03
2019-02-25T20:39:06.980Z,54.77
2019-02-25T20:43:21.340Z,54.17
2019-02-25T20:47:28.599Z,43.80
2019-02-25T20:51:38.865Z,61.80
2019-02-25T20:55:52.385Z,58.53
2019-02-25T21:00:21.001Z,63.23
2019-02-25T21:04:27.801Z,56.37
2019-02-25T21:08:56.636Z,54.47
2019-02-25T21:13:03.202Z,62.00
2019-02-25T21:17:12.946Z,48.23
2019-02-25T21:21:18.495Z,55.30
2019-02-25T21:25:26.754Z,60.17
2019-02-25T21:29:36.540Z,56.00
2019-02-25T21:33:47.419Z,54.40
2019-02-25T21:37:54.662Z,61.97
2019-02-25T21:42:02.802Z,51.97
2019-02-25T21:46:09.768Z,46.07
2019-02-25T21:50:18.232Z,58.47
2019-02-25T21:54:28.227Z,52.00
2019-02-25T21:58:36.569Z,53.70
2019-02-25T22:02:44.021Z,63.27
2019-02-25T22:11:11.982Z,58.77
2019-02-25T22:15:10.839Z,55.13
2019-02-25T22:19:20.858Z,62.47
2019-02-25T22:23:28.421Z,57.97
2019-02-25T22:27:37.384Z,66.70
2019-02-25T22:31:44.712Z,61.60
2019-02-25T22:40:01.831Z,57.80
2019-02-25T22:44:08.967Z,64.57
2019-02-25T22:48:18.606Z,71.67
2019-02-25T22:52:27.205Z,55.83
2019-02-25T22:56:39.392Z,74.57
2019-02-25T23:00:49.073Z,76.33
2019-02-25T23:04:57.382Z,65.87
2019-02-25T23:09:05.066Z,66.87
2019-02-25T23:13:15.179Z,68.20
2019-02-25T23:17:21.478Z,66.63
2019-02-25T23:21:29.311Z,61.77
2019-02-25T23:25:58.409Z,67.63
2019-02-25T23:30:08.384Z,58.73
2019-02-25T23:34:15.335Z,63.77
2019-02-25T23:38:22.578Z,58.70
2019-02-25T23:42:32.746Z,56.67
2019-02-25T23:46:41.708Z,58.90
2019-02-25T23:50:50.177Z,62.27
2019-02-25T23:54:58.553Z,52.97
2019-02-25T23:59:10.767Z,66.83
